sensor_id;sensor_type;location;lat;lon;timestamp;pressure;altitude;pressure_sealevel;temperature;humidity
57248;BME280;55809;46.618;10.764;2023-08-06T00:22:22;92081.44;;;17.23;57.46
57248;BME280;55809;46.618;10.764;2023-08-06T00:24:49;92084.16;;;17.23;57.90
57248;BME280;55809;46.618;10.764;2023-08-06T03:54:49;92054.25;;;16.34;54.31
57248;BME280;55809;46.618;10.764;2023-08-06T03:57:35;91965.69;;;15.69;54.46
57248;BME280;55809;46.618;10.764;2023-08-06T04:00:23;91973.53;;;15.58;54.50
57248;BME280;55809;46.618;10.764;2023-08-06T04:03:10;91974.91;;;15.53;54.85
57248;BME280;55809;46.618;10.764;2023-08-06T04:06:31;91969.44;;;15.53;55.32
57248;BME280;55809;46.618;10.764;2023-08-06T04:12:59;92042.16;;;16.08;55.45
57248;BME280;55809;46.618;10.764;2023-08-06T04:15:37;92054.88;;;16.11;55.28
57248;BME280;55809;46.618;10.764;2023-08-06T04:18:25;92015.88;;;15.86;55.16
57248;BME280;55809;46.618;10.764;2023-08-06T04:24:47;92047.47;;;15.93;55.12
57248;BME280;55809;46.618;10.764;2023-08-06T04:27:30;92017.84;;;15.67;55.68
57248;BME280;55809;46.618;10.764;2023-08-06T04:33:34;92035.81;;;15.74;56.36
57248;BME280;55809;46.618;10.764;2023-08-06T04:36:03;92040.97;;;15.81;56.28
57248;BME280;55809;46.618;10.764;2023-08-06T04:38:35;92019.19;;;15.72;56.32
57248;BME280;55809;46.618;10.764;2023-08-06T04:41:16;92012.81;;;15.57;56.74
57248;BME280;55809;46.618;10.764;2023-08-06T04:44:06;92020.66;;;15.55;57.07
57248;BME280;55809;46.618;10.764;2023-08-06T04:47:03;92024.59;;;15.63;57.06
57248;BME280;55809;46.618;10.764;2023-08-06T04:50:02;92011.75;;;15.54;57.25
57248;BME280;55809;46.618;10.764;2023-08-06T04:52:46;92034.56;;;15.57;57.42
57248;BME280;55809;46.618;10.764;2023-08-06T04:55:33;92030.03;;;15.54;56.90
57248;BME280;55809;46.618;10.764;2023-08-06T06:11:40;92078.41;;;19.59;41.63
57248;BME280;55809;46.618;10.764;2023-08-06T06:14:07;92078.13;;;19.92;41.95
57248;BME280;55809;46.618;10.764;2023-08-06T06:16:34;92082.59;;;20.10;41.90
57248;BME280;55809;46.618;10.764;2023-08-06T06:19:02;92079.75;;;20.25;41.32
57248;BME280;55809;46.618;10.764;2023-08-06T06:21:29;92088.66;;;20.41;40.32
57248;BME280;55809;46.618;10.764;2023-08-06T06:23:56;92038.97;;;20.33;38.33
57248;BME280;55809;46.618;10.764;2023-08-06T06:26:23;92088.81;;;20.78;37.21
57248;BME280;55809;46.618;10.764;2023-08-06T06:28:51;92090.28;;;20.99;37.27
57248;BME280;55809;46.618;10.764;2023-08-06T06:31:18;92089.03;;;21.00;36.77
57248;BME280;55809;46.618;10.764;2023-08-06T06:33:45;92066.50;;;20.91;36.29
57248;BME280;55809;46.618;10.764;2023-08-06T06:36:12;92062.13;;;21.04;36.17
57248;BME280;55809;46.618;10.764;2023-08-06T06:38:39;92096.16;;;21.44;36.71
57248;BME280;55809;46.618;10.764;2023-08-06T06:41:07;92093.63;;;21.78;37.96
57248;BME280;55809;46.618;10.764;2023-08-06T06:43:34;92093.75;;;21.95;37.53
57248;BME280;55809;46.618;10.764;2023-08-06T06:46:02;92048.91;;;21.77;36.55
57248;BME280;55809;46.618;10.764;2023-08-06T06:48:31;92114.91;;;22.26;35.43
57248;BME280;55809;46.618;10.764;2023-08-06T06:50:59;92106.22;;;22.39;35.67
57248;BME280;55809;46.618;10.764;2023-08-06T06:53:26;92103.94;;;22.37;33.66
57248;BME280;55809;46.618;10.764;2023-08-06T06:55:53;92104.50;;;22.53;33.53
57248;BME280;55809;46.618;10.764;2023-08-06T06:58:20;92097.78;;;22.59;33.41
57248;BME280;55809;46.618;10.764;2023-08-06T07:00:48;92088.34;;;22.77;34.29
57248;BME280;55809;46.618;10.764;2023-08-06T07:03:17;92092.91;;;22.97;33.46
57248;BME280;55809;46.618;10.764;2023-08-06T07:05:44;92095.91;;;23.16;34.03
57248;BME280;55809;46.618;10.764;2023-08-06T07:08:11;92091.69;;;23.21;33.58
57248;BME280;55809;46.618;10.764;2023-08-06T07:10:40;92091.44;;;23.30;33.93
57248;BME280;55809;46.618;10.764;2023-08-06T07:13:07;92082.91;;;23.50;33.88
57248;BME280;55809;46.618;10.764;2023-08-06T07:15:34;92084.16;;;23.66;33.48
57248;BME280;55809;46.618;10.764;2023-08-06T07:18:01;92042.81;;;23.60;33.58
57248;BME280;55809;46.618;10.764;2023-08-06T07:20:30;92077.13;;;23.99;32.06
57248;BME280;55809;46.618;10.764;2023-08-06T07:22:58;92055.06;;;23.87;32.57
57248;BME280;55809;46.618;10.764;2023-08-06T07:25:25;92056.22;;;24.20;32.66
57248;BME280;55809;46.618;10.764;2023-08-06T07:27:52;92060.41;;;24.44;31.39
57248;BME280;55809;46.618;10.764;2023-08-06T07:30:19;92058.84;;;24.60;31.05
57248;BME280;55809;46.618;10.764;2023-08-06T07:32:46;92055.72;;;24.80;29.82
57248;BME280;55809;46.618;10.764;2023-08-06T07:35:13;92043.47;;;24.70;30.48
57248;BME280;55809;46.618;10.764;2023-08-06T07:37:42;92029.06;;;24.88;30.46
57248;BME280;55809;46.618;10.764;2023-08-06T07:40:10;92048.56;;;25.01;29.51
57248;BME280;55809;46.618;10.764;2023-08-06T07:42:37;92055.66;;;25.27;29.58
57248;BME280;55809;46.618;10.764;2023-08-06T07:45:05;92048.50;;;25.07;29.90
57248;BME280;55809;46.618;10.764;2023-08-06T07:47:32;92043.19;;;24.79;29.63
57248;BME280;55809;46.618;10.764;2023-08-06T07:49:59;92045.41;;;24.33;30.86
57248;BME280;55809;46.618;10.764;2023-08-06T07:52:26;92056.81;;;23.91;30.79
57248;BME280;55809;46.618;10.764;2023-08-06T07:54:54;92052.34;;;23.03;31.96
57248;BME280;55809;46.618;10.764;2023-08-06T07:57:21;92016.97;;;22.40;31.76
57248;BME280;55809;46.618;10.764;2023-08-06T07:59:48;92032.34;;;22.09;33.10
57248;BME280;55809;46.618;10.764;2023-08-06T08:02:15;92040.19;;;21.79;32.55
57248;BME280;55809;46.618;10.764;2023-08-06T08:04:42;92041.06;;;22.08;32.84
57248;BME280;55809;46.618;10.764;2023-08-06T08:07:10;92042.38;;;23.00;32.39
57248;BME280;55809;46.618;10.764;2023-08-06T08:09:37;92045.31;;;23.58;29.88
57248;BME280;55809;46.618;10.764;2023-08-06T08:12:06;92020.25;;;23.90;31.52
57248;BME280;55809;46.618;10.764;2023-08-06T08:14:33;92042.69;;;24.22;30.36
57248;BME280;55809;46.618;10.764;2023-08-06T08:17:01;92034.22;;;24.67;30.12
57248;BME280;55809;46.618;10.764;2023-08-06T08:19:29;92033.41;;;25.14;29.60
57248;BME280;55809;46.618;10.764;2023-08-06T08:21:56;92036.16;;;25.19;29.83
57248;BME280;55809;46.618;10.764;2023-08-06T08:24:23;92035.25;;;25.36;29.92
57248;BME280;55809;46.618;10.764;2023-08-06T08:26:50;92030.16;;;25.45;29.12
57248;BME280;55809;46.618;10.764;2023-08-06T08:29:19;92027.56;;;25.53;29.92
57248;BME280;55809;46.618;10.764;2023-08-06T08:31:46;92026.50;;;25.62;28.88
57248;BME280;55809;46.618;10.764;2023-08-06T08:34:14;92032.22;;;25.94;29.92
57248;BME280;55809;46.618;10.764;2023-08-06T08:36:41;92030.13;;;25.51;30.47
57248;BME280;55809;46.618;10.764;2023-08-06T08:39:12;92024.94;;;25.06;30.99
57248;BME280;55809;46.618;10.764;2023-08-06T08:41:39;92005.25;;;24.44;31.19
57248;BME280;55809;46.618;10.764;2023-08-06T08:44:08;92034.09;;;24.37;31.54
57248;BME280;55809;46.618;10.764;2023-08-06T08:46:40;92036.63;;;24.82;32.22
57248;BME280;55809;46.618;10.764;2023-08-06T08:49:07;92037.22;;;24.69;32.32
57248;BME280;55809;46.618;10.764;2023-08-06T08:51:34;92034.97;;;25.39;31.28
57248;BME280;55809;46.618;10.764;2023-08-06T08:54:02;92029.22;;;25.67;31.27
57248;BME280;55809;46.618;10.764;2023-08-06T08:56:30;92025.53;;;26.08;30.44
57248;BME280;55809;46.618;10.764;2023-08-06T08:58:58;92027.72;;;26.15;29.77
57248;BME280;55809;46.618;10.764;2023-08-06T09:01:25;92029.44;;;26.18;30.37
57248;BME280;55809;46.618;10.764;2023-08-06T09:03:55;92026.00;;;26.31;28.50
57248;BME280;55809;46.618;10.764;2023-08-06T09:06:23;92015.69;;;26.75;28.41
57248;BME280;55809;46.618;10.764;2023-08-06T09:08:59;91977.72;;;26.70;29.08
57248;BME280;55809;46.618;10.764;2023-08-06T09:11:28;92014.03;;;26.66;29.40
57248;BME280;55809;46.618;10.764;2023-08-06T09:13:57;92015.00;;;25.82;29.95
57248;BME280;55809;46.618;10.764;2023-08-06T09:16:25;92012.63;;;25.92;30.55
57248;BME280;55809;46.618;10.764;2023-08-06T09:18:52;92016.88;;;26.17;30.12
57248;BME280;55809;46.618;10.764;2023-08-06T09:21:20;92019.69;;;26.55;29.67
57248;BME280;55809;46.618;10.764;2023-08-06T09:23:47;92014.81;;;26.99;29.10
57248;BME280;55809;46.618;10.764;2023-08-06T09:26:14;92011.97;;;27.05;27.49
57248;BME280;55809;46.618;10.764;2023-08-06T09:28:42;92026.94;;;26.39;29.27
57248;BME280;55809;46.618;10.764;2023-08-06T09:31:09;92019.81;;;26.25;29.32
57248;BME280;55809;46.618;10.764;2023-08-06T09:33:37;92022.97;;;25.91;30.58
57248;BME280;55809;46.618;10.764;2023-08-06T09:36:07;92028.59;;;25.50;30.91
57248;BME280;55809;46.618;10.764;2023-08-06T09:38:39;91996.63;;;25.60;30.68
57248;BME280;55809;46.618;10.764;2023-08-06T09:41:06;92023.88;;;26.00;31.19
57248;BME280;55809;46.618;10.764;2023-08-06T09:43:41;91995.91;;;25.79;30.00
57248;BME280;55809;46.618;10.764;2023-08-06T09:46:12;92042.16;;;25.54;30.42
57248;BME280;55809;46.618;10.764;2023-08-06T09:48:41;92037.09;;;24.92;28.90
57248;BME280;55809;46.618;10.764;2023-08-06T09:51:13;92034.09;;;24.43;31.18
57248;BME280;55809;46.618;10.764;2023-08-06T09:53:42;92046.22;;;24.11;31.72
57248;BME280;55809;46.618;10.764;2023-08-06T09:56:10;92044.13;;;24.34;32.34
57248;BME280;55809;46.618;10.764;2023-08-06T09:58:39;92036.41;;;24.74;31.44
57248;BME280;55809;46.618;10.764;2023-08-06T10:01:06;92036.03;;;24.59;32.27
57248;BME280;55809;46.618;10.764;2023-08-06T10:03:34;92068.69;;;24.44;32.56
57248;BME280;55809;46.618;10.764;2023-08-06T10:06:02;92077.38;;;23.67;31.94
57248;BME280;55809;46.618;10.764;2023-08-06T10:08:32;92071.88;;;23.00;29.80
57248;BME280;55809;46.618;10.764;2023-08-06T10:11:02;92058.75;;;22.50;30.71
57248;BME280;55809;46.618;10.764;2023-08-06T10:13:31;92098.66;;;22.93;32.03
57248;BME280;55809;46.618;10.764;2023-08-06T10:16:00;92091.84;;;22.78;30.76
57248;BME280;55809;46.618;10.764;2023-08-06T10:18:28;92099.44;;;23.39;29.98
57248;BME280;55809;46.618;10.764;2023-08-06T10:20:55;92091.94;;;23.34;31.86
57248;BME280;55809;46.618;10.764;2023-08-06T10:23:33;92091.66;;;23.32;32.26
57248;BME280;55809;46.618;10.764;2023-08-06T10:26:02;92086.66;;;23.19;31.73
57248;BME280;55809;46.618;10.764;2023-08-06T10:28:36;92102.69;;;23.21;33.51
57248;BME280;55809;46.618;10.764;2023-08-06T10:31:04;92105.59;;;22.83;34.17
57248;BME280;55809;46.618;10.764;2023-08-06T10:33:42;92090.28;;;22.65;34.31
57248;BME280;55809;46.618;10.764;2023-08-06T10:36:10;92097.44;;;23.17;34.65
57248;BME280;55809;46.618;10.764;2023-08-06T10:38:45;92106.47;;;23.68;34.08
57248;BME280;55809;46.618;10.764;2023-08-06T10:41:22;92095.84;;;24.17;33.43
57248;BME280;55809;46.618;10.764;2023-08-06T10:43:49;92084.97;;;24.47;32.86
57248;BME280;55809;46.618;10.764;2023-08-06T10:46:27;92083.03;;;24.84;31.92
57248;BME280;55809;46.618;10.764;2023-08-06T10:48:54;92090.38;;;25.17;32.33
57248;BME280;55809;46.618;10.764;2023-08-06T10:51:21;92080.06;;;25.53;31.38
57248;BME280;55809;46.618;10.764;2023-08-06T10:53:50;92066.13;;;25.70;30.00
57248;BME280;55809;46.618;10.764;2023-08-06T10:56:19;92072.84;;;25.80;30.13
57248;BME280;55809;46.618;10.764;2023-08-06T10:58:48;92040.88;;;25.85;30.88
57248;BME280;55809;46.618;10.764;2023-08-06T11:01:16;92054.69;;;26.09;29.93
57248;BME280;55809;46.618;10.764;2023-08-06T11:03:46;92055.59;;;26.17;29.26
57248;BME280;55809;46.618;10.764;2023-08-06T11:06:17;92047.75;;;26.22;29.11
57248;BME280;55809;46.618;10.764;2023-08-06T11:08:48;92049.63;;;26.32;28.70
57248;BME280;55809;46.618;10.764;2023-08-06T11:11:16;92047.69;;;26.52;29.17
57248;BME280;55809;46.618;10.764;2023-08-06T11:13:46;92047.78;;;26.40;30.06
57248;BME280;55809;46.618;10.764;2023-08-06T11:16:14;92058.56;;;26.44;30.04
57248;BME280;55809;46.618;10.764;2023-08-06T11:18:42;92032.44;;;26.20;29.47
57248;BME280;55809;46.618;10.764;2023-08-06T11:21:09;92032.19;;;26.18;29.15
57248;BME280;55809;46.618;10.764;2023-08-06T11:23:37;92050.22;;;26.06;30.17
57248;BME280;55809;46.618;10.764;2023-08-06T11:26:04;92051.41;;;25.26;30.07
57248;BME280;55809;46.618;10.764;2023-08-06T11:28:31;92057.72;;;24.79;32.02
57248;BME280;55809;46.618;10.764;2023-08-06T11:31:00;92067.84;;;24.66;31.80
57248;BME280;55809;46.618;10.764;2023-08-06T11:33:29;92051.84;;;24.53;31.71
57248;BME280;55809;46.618;10.764;2023-08-06T11:35:57;92060.06;;;23.95;31.91
57248;BME280;55809;46.618;10.764;2023-08-06T11:38:25;92064.63;;;23.41;32.25
57248;BME280;55809;46.618;10.764;2023-08-06T11:40:54;92069.13;;;23.00;31.26
57248;BME280;55809;46.618;10.764;2023-08-06T11:43:21;92073.28;;;22.67;32.94
57248;BME280;55809;46.618;10.764;2023-08-06T11:45:49;92075.53;;;22.63;33.12
57248;BME280;55809;46.618;10.764;2023-08-06T11:48:20;92094.22;;;22.42;34.38
57248;BME280;55809;46.618;10.764;2023-08-06T11:50:47;92093.63;;;22.15;35.11
57248;BME280;55809;46.618;10.764;2023-08-06T11:53:14;92136.28;;;22.11;36.33
57248;BME280;55809;46.618;10.764;2023-08-06T11:55:42;92150.19;;;21.59;37.72
57248;BME280;55809;46.618;10.764;2023-08-06T11:58:10;92159.75;;;21.37;36.82
57248;BME280;55809;46.618;10.764;2023-08-06T12:00:38;92154.59;;;21.24;38.23
57248;BME280;55809;46.618;10.764;2023-08-06T12:03:05;92116.69;;;20.97;39.39
57248;BME280;55809;46.618;10.764;2023-08-06T12:05:34;92131.47;;;21.05;38.27
57248;BME280;55809;46.618;10.764;2023-08-06T12:08:02;92141.31;;;20.91;37.22
57248;BME280;55809;46.618;10.764;2023-08-06T12:10:30;92099.78;;;20.78;37.81
57248;BME280;55809;46.618;10.764;2023-08-06T12:12:57;92123.34;;;21.16;38.01
57248;BME280;55809;46.618;10.764;2023-08-06T12:15:25;92114.50;;;21.33;37.84
57248;BME280;55809;46.618;10.764;2023-08-06T12:17:52;92112.91;;;21.46;37.69
57248;BME280;55809;46.618;10.764;2023-08-06T12:20:19;92107.75;;;21.60;36.12
57248;BME280;55809;46.618;10.764;2023-08-06T12:22:47;92103.75;;;21.61;35.99
57248;BME280;55809;46.618;10.764;2023-08-06T12:25:15;92096.34;;;21.72;35.63
57248;BME280;55809;46.618;10.764;2023-08-06T12:27:43;92065.75;;;21.53;35.87
57248;BME280;55809;46.618;10.764;2023-08-06T12:30:11;92103.63;;;21.75;35.37
57248;BME280;55809;46.618;10.764;2023-08-06T12:32:39;92103.38;;;21.79;35.35
57248;BME280;55809;46.618;10.764;2023-08-06T12:35:07;92096.44;;;21.89;34.58
57248;BME280;55809;46.618;10.764;2023-08-06T12:37:34;92102.66;;;21.84;35.63
57248;BME280;55809;46.618;10.764;2023-08-06T12:40:04;92107.81;;;21.71;36.08
57248;BME280;55809;46.618;10.764;2023-08-06T12:42:31;92103.00;;;21.60;35.32
57248;BME280;55809;46.618;10.764;2023-08-06T12:44:58;92110.94;;;21.52;35.33
57248;BME280;55809;46.618;10.764;2023-08-06T12:47:25;92108.22;;;21.52;36.50
57248;BME280;55809;46.618;10.764;2023-08-06T12:49:52;92106.03;;;21.68;36.91
57248;BME280;55809;46.618;10.764;2023-08-06T12:52:19;92096.81;;;21.65;35.86
57248;BME280;55809;46.618;10.764;2023-08-06T12:54:46;92082.56;;;21.67;36.02
57248;BME280;55809;46.618;10.764;2023-08-06T12:57:15;92079.19;;;21.83;37.49
57248;BME280;55809;46.618;10.764;2023-08-06T12:59:42;92089.22;;;21.92;36.53
57248;BME280;55809;46.618;10.764;2023-08-06T13:04:36;92080.22;;;21.91;35.63
57248;BME280;55809;46.618;10.764;2023-08-06T13:07:03;92082.19;;;21.85;35.02
57248;BME280;55809;46.618;10.764;2023-08-06T13:09:31;92050.59;;;21.64;36.03
57248;BME280;55809;46.618;10.764;2023-08-06T13:11:59;92079.44;;;21.85;35.56
57248;BME280;55809;46.618;10.764;2023-08-06T13:14:32;92089.66;;;21.79;34.04
57248;BME280;55809;46.618;10.764;2023-08-06T13:16:59;92089.91;;;21.81;35.64
57248;BME280;55809;46.618;10.764;2023-08-06T13:19:26;92088.66;;;21.82;35.37
57248;BME280;55809;46.618;10.764;2023-08-06T13:22:05;92092.41;;;21.79;35.76
57248;BME280;55809;46.618;10.764;2023-08-06T13:24:34;92082.19;;;21.85;35.61
57248;BME280;55809;46.618;10.764;2023-08-06T13:27:01;92089.22;;;21.92;35.81
57248;BME280;55809;46.618;10.764;2023-08-06T13:29:28;92085.97;;;21.93;36.06
57248;BME280;55809;46.618;10.764;2023-08-06T13:31:57;92086.91;;;21.85;35.94
57248;BME280;55809;46.618;10.764;2023-08-06T13:34:24;92105.97;;;21.94;36.31
57248;BME280;55809;46.618;10.764;2023-08-06T13:36:51;92118.25;;;21.98;36.86
57248;BME280;55809;46.618;10.764;2023-08-06T13:39:18;92121.94;;;21.90;36.30
57248;BME280;55809;46.618;10.764;2023-08-06T13:41:45;92092.88;;;21.77;36.44
57248;BME280;55809;46.618;10.764;2023-08-06T13:44:12;92115.50;;;22.04;36.09
57248;BME280;55809;46.618;10.764;2023-08-06T13:46:41;92120.22;;;21.98;36.43
57248;BME280;55809;46.618;10.764;2023-08-06T13:49:09;92111.22;;;21.97;35.53
57248;BME280;55809;46.618;10.764;2023-08-06T13:51:38;92106.97;;;21.96;34.77
57248;BME280;55809;46.618;10.764;2023-08-06T13:54:05;92093.25;;;21.96;35.55
57248;BME280;55809;46.618;10.764;2023-08-06T13:56:32;92098.97;;;21.93;36.06
57248;BME280;55809;46.618;10.764;2023-08-06T13:58:59;92101.22;;;21.94;35.82
57248;BME280;55809;46.618;10.764;2023-08-06T14:01:26;92099.19;;;21.89;36.18
57248;BME280;55809;46.618;10.764;2023-08-06T14:03:53;92068.63;;;21.70;36.11
57248;BME280;55809;46.618;10.764;2023-08-06T14:06:22;92057.84;;;21.67;33.99
57248;BME280;55809;46.618;10.764;2023-08-06T14:08:49;92106.66;;;21.83;35.08
57248;BME280;55809;46.618;10.764;2023-08-06T14:11:16;92112.28;;;21.63;34.22
57248;BME280;55809;46.618;10.764;2023-08-06T14:13:43;92106.38;;;21.44;34.92
57248;BME280;55809;46.618;10.764;2023-08-06T14:16:10;92109.78;;;21.33;35.15
57248;BME280;55809;46.618;10.764;2023-08-06T14:18:37;92115.72;;;21.26;35.86
57248;BME280;55809;46.618;10.764;2023-08-06T14:21:04;92118.13;;;21.18;36.61
57248;BME280;55809;46.618;10.764;2023-08-06T14:23:33;92120.56;;;21.11;36.88
57248;BME280;55809;46.618;10.764;2023-08-06T14:26:00;92113.78;;;21.06;37.31
57248;BME280;55809;46.618;10.764;2023-08-06T14:28:27;92125.16;;;20.99;36.29
57248;BME280;55809;46.618;10.764;2023-08-06T14:30:55;92106.66;;;20.68;36.49
57248;BME280;55809;46.618;10.764;2023-08-06T14:33:22;92128.72;;;20.79;36.44
57248;BME280;55809;46.618;10.764;2023-08-06T14:35:49;92131.47;;;20.79;37.02
57248;BME280;55809;46.618;10.764;2023-08-06T14:38:16;92127.28;;;20.83;36.96
57248;BME280;55809;46.618;10.764;2023-08-06T14:40:45;92136.66;;;20.97;37.74
57248;BME280;55809;46.618;10.764;2023-08-06T14:43:12;92128.69;;;20.99;37.93
57248;BME280;55809;46.618;10.764;2023-08-06T14:45:39;92135.75;;;21.06;36.74
57248;BME280;55809;46.618;10.764;2023-08-06T14:48:09;92124.28;;;21.07;37.51
57248;BME280;55809;46.618;10.764;2023-08-06T14:50:36;92121.22;;;21.00;36.96
57248;BME280;55809;46.618;10.764;2023-08-06T14:53:10;92134.00;;;21.08;35.65
57248;BME280;55809;46.618;10.764;2023-08-06T14:55:38;92141.00;;;21.10;35.56
57248;BME280;55809;46.618;10.764;2023-08-06T14:58:09;92135.25;;;21.07;34.19
57248;BME280;55809;46.618;10.764;2023-08-06T15:00:36;92136.38;;;20.95;35.88
57248;BME280;55809;46.618;10.764;2023-08-06T15:03:03;92109.06;;;20.80;36.50
57248;BME280;55809;46.618;10.764;2023-08-06T15:05:30;92153.47;;;21.11;36.38
57248;BME280;55809;46.618;10.764;2023-08-06T15:07:57;92149.63;;;20.97;36.05
57248;BME280;55809;46.618;10.764;2023-08-06T15:10:24;92150.06;;;20.95;36.46
57248;BME280;55809;46.618;10.764;2023-08-06T15:12:51;92150.28;;;20.92;36.82
57248;BME280;55809;46.618;10.764;2023-08-06T15:15:20;92164.88;;;21.03;37.21
57248;BME280;55809;46.618;10.764;2023-08-06T15:17:47;92172.38;;;20.82;36.10
57248;BME280;55809;46.618;10.764;2023-08-06T15:20:14;92179.25;;;20.72;35.50
57248;BME280;55809;46.618;10.764;2023-08-06T15:22:41;92170.72;;;20.65;36.31
57248;BME280;55809;46.618;10.764;2023-08-06T15:25:08;92183.81;;;20.55;36.52
57248;BME280;55809;46.618;10.764;2023-08-06T15:27:35;92162.94;;;20.43;36.92
57248;BME280;55809;46.618;10.764;2023-08-06T15:30:04;92189.00;;;20.53;36.66
57248;BME280;55809;46.618;10.764;2023-08-06T15:32:33;92198.47;;;20.52;37.14
57248;BME280;55809;46.618;10.764;2023-08-06T15:35:00;92202.25;;;20.54;37.56
57248;BME280;55809;46.618;10.764;2023-08-06T15:37:29;92203.19;;;20.51;37.50
57248;BME280;55809;46.618;10.764;2023-08-06T15:39:56;92207.06;;;20.45;37.21
57248;BME280;55809;46.618;10.764;2023-08-06T15:42:23;92212.13;;;20.31;37.11
57248;BME280;55809;46.618;10.764;2023-08-06T15:44:50;92215.75;;;20.23;37.76
57248;BME280;55809;46.618;10.764;2023-08-06T15:47:17;92180.97;;;19.94;37.01
57248;BME280;55809;46.618;10.764;2023-08-06T15:49:46;92205.50;;;20.03;37.81
57248;BME280;55809;46.618;10.764;2023-08-06T15:52:12;92195.69;;;19.96;37.37
57248;BME280;55809;46.618;10.764;2023-08-06T15:54:41;92195.06;;;19.86;37.97
57248;BME280;55809;46.618;10.764;2023-08-06T15:57:08;92219.41;;;19.99;38.25
57248;BME280;55809;46.618;10.764;2023-08-06T15:59:35;92211.97;;;19.85;37.88
57248;BME280;55809;46.618;10.764;2023-08-06T16:02:03;92199.88;;;19.77;37.38
57248;BME280;55809;46.618;10.764;2023-08-06T16:04:32;92205.16;;;19.80;37.53
57248;BME280;55809;46.618;10.764;2023-08-06T16:07:00;92187.81;;;19.68;35.76
57248;BME280;55809;46.618;10.764;2023-08-06T16:09:27;92166.94;;;19.56;36.50
57248;BME280;55809;46.618;10.764;2023-08-06T16:11:56;92206.00;;;19.86;37.53
57248;BME280;55809;46.618;10.764;2023-08-06T16:14:23;92212.72;;;19.85;38.33
57248;BME280;55809;46.618;10.764;2023-08-06T16:16:51;92155.25;;;19.41;38.12
57248;BME280;55809;46.618;10.764;2023-08-06T16:19:18;92212.47;;;19.68;37.09
57248;BME280;55809;46.618;10.764;2023-08-06T16:21:53;92188.09;;;19.56;36.14
57248;BME280;55809;46.618;10.764;2023-08-06T16:24:25;92200.84;;;19.59;37.73
57248;BME280;55809;46.618;10.764;2023-08-06T16:26:52;92214.72;;;19.70;37.42
57248;BME280;55809;46.618;10.764;2023-08-06T16:29:19;92217.94;;;19.68;36.87
57248;BME280;55809;46.618;10.764;2023-08-06T16:31:46;92223.41;;;19.68;37.73
57248;BME280;55809;46.618;10.764;2023-08-06T16:34:13;92220.94;;;19.56;37.09
57248;BME280;55809;46.618;10.764;2023-08-06T16:36:40;92216.59;;;19.49;37.96
57248;BME280;55809;46.618;10.764;2023-08-06T16:39:07;92230.75;;;19.62;37.69
57248;BME280;55809;46.618;10.764;2023-08-06T16:41:36;92223.28;;;19.63;36.27
57248;BME280;55809;46.618;10.764;2023-08-06T16:44:03;92225.94;;;19.57;36.86
57248;BME280;55809;46.618;10.764;2023-08-06T16:46:34;92230.66;;;19.42;37.61
57248;BME280;55809;46.618;10.764;2023-08-06T16:49:01;92237.00;;;19.48;36.80
57248;BME280;55809;46.618;10.764;2023-08-06T16:51:28;92272.56;;;19.48;37.71
57248;BME280;55809;46.618;10.764;2023-08-06T16:57:20;92293.13;;;19.43;35.66
57248;BME280;55809;46.618;10.764;2023-08-06T16:59:47;92278.03;;;19.33;36.62
57248;BME280;55809;46.618;10.764;2023-08-06T17:02:14;92292.00;;;19.50;37.52
57248;BME280;55809;46.618;10.764;2023-08-06T17:04:43;92302.38;;;19.46;38.10
57248;BME280;55809;46.618;10.764;2023-08-06T17:07:10;92302.00;;;19.38;38.31
57248;BME280;55809;46.618;10.764;2023-08-06T17:09:37;92310.84;;;19.33;38.23
57248;BME280;55809;46.618;10.764;2023-08-06T17:12:06;92306.22;;;19.25;38.26
57248;BME280;55809;46.618;10.764;2023-08-06T17:14:37;92312.97;;;19.14;38.19
57248;BME280;55809;46.618;10.764;2023-08-06T17:17:04;92304.06;;;18.90;37.86
57248;BME280;55809;46.618;10.764;2023-08-06T17:19:32;92330.69;;;19.04;38.41
57248;BME280;55809;46.618;10.764;2023-08-06T17:21:59;92301.38;;;18.81;38.96
57248;BME280;55809;46.618;10.764;2023-08-06T17:24:27;92314.13;;;18.84;38.60
57248;BME280;55809;46.618;10.764;2023-08-06T17:39:56;92349.19;;;18.52;40.71
57248;BME280;55809;46.618;10.764;2023-08-06T17:42:24;92324.81;;;18.39;41.08
57248;BME280;55809;46.618;10.764;2023-08-06T17:45:05;92377.84;;;18.66;40.34
57248;BME280;55809;46.618;10.764;2023-08-06T17:47:33;92340.03;;;18.31;39.24
57248;BME280;55809;46.618;10.764;2023-08-06T17:50:01;92367.47;;;18.46;39.87
57248;BME280;55809;46.618;10.764;2023-08-06T17:52:29;92318.69;;;18.20;39.62
57248;BME280;55809;46.618;10.764;2023-08-06T18:05:44;92400.31;;;18.27;40.21
57248;BME280;55809;46.618;10.764;2023-08-06T18:08:12;92391.34;;;18.27;40.97
57248;BME280;55809;46.618;10.764;2023-08-06T18:10:50;92352.72;;;18.01;41.51
57248;BME280;55809;46.618;10.764;2023-08-06T18:13:19;92371.94;;;18.16;41.30
57248;BME280;55809;46.618;10.764;2023-08-06T18:29:36;92392.94;;;18.00;40.52
57248;BME280;55809;46.618;10.764;2023-08-06T18:32:22;92402.03;;;17.97;40.66
57248;BME280;55809;46.618;10.764;2023-08-06T18:34:51;92401.16;;;17.91;41.29
57248;BME280;55809;46.618;10.764;2023-08-06T18:37:20;92355.84;;;17.48;41.04
57248;BME280;55809;46.618;10.764;2023-08-06T18:40:01;92426.47;;;17.83;41.25
57248;BME280;55809;46.618;10.764;2023-08-06T18:45:37;92431.63;;;17.71;41.81
57248;BME280;55809;46.618;10.764;2023-08-06T18:48:32;92452.38;;;17.69;42.09
57248;BME280;55809;46.618;10.764;2023-08-06T18:51:19;92471.34;;;17.72;42.40
57248;BME280;55809;46.618;10.764;2023-08-06T18:53:47;92469.06;;;17.62;42.38
57248;BME280;55809;46.618;10.764;2023-08-06T18:56:20;92397.19;;;17.09;42.41
57248;BME280;55809;46.618;10.764;2023-08-06T19:02:24;92501.66;;;17.65;42.56
57248;BME280;55809;46.618;10.764;2023-08-06T19:08:04;92433.19;;;16.86;42.30